createdAt,value
2018-09-19T00:00:16.103Z,3.70
2018-09-19T00:02:45.147Z,3.77
2018-09-19T00:05:18.467Z,3.53
2018-09-19T00:07:50.527Z,4.13
2018-09-19T00:10:19.968Z,3.77
2018-09-19T00:12:55.346Z,3.87
2018-09-19T00:15:26.071Z,3.97
2018-09-19T00:17:57.991Z,4.83
2018-09-19T00:20:26.977Z,4.10
2018-09-19T00:23:02.287Z,3.87
2018-09-19T00:25:32.445Z,5.23
2018-09-19T00:28:05.627Z,3.63
2018-09-19T00:30:36.387Z,4.23
2018-09-19T00:33:07.268Z,5.57
2018-09-19T00:35:36.473Z,4.43
2018-09-19T00:38:08.265Z,5.53
2018-09-19T00:40:41.375Z,4.10
2018-09-19T00:43:12.545Z,4.20
2018-09-19T00:45:46.606Z,6.40
2018-09-19T00:48:15.586Z,4.43
2018-09-19T00:50:44.660Z,5.83
2018-09-19T00:53:13.947Z,4.20
2018-09-19T00:55:44.694Z,5.47
2018-09-19T00:58:15.786Z,3.53
2018-09-19T01:00:49.594Z,4.07
2018-09-19T01:03:20.986Z,5.60
2018-09-19T01:08:26.444Z,5.50
2018-09-19T01:10:57.218Z,4.20
2018-09-19T01:13:26.215Z,6.03
2018-09-19T01:15:57.419Z,4.77
2018-09-19T01:18:26.488Z,4.80
2018-09-19T01:20:55.533Z,4.60
2018-09-19T01:23:27.639Z,5.37
2018-09-19T01:25:56.668Z,4.43
2018-09-19T01:28:27.371Z,6.30
2018-09-19T01:30:58.211Z,4.97
2018-09-19T01:33:28.386Z,5.40
2018-09-19T01:36:00.089Z,4.33
2018-09-19T01:38:30.313Z,6.03
2018-09-19T01:40:59.416Z,4.37
2018-09-19T01:43:31.244Z,5.30
2018-09-19T01:46:00.886Z,4.90
2018-09-19T01:48:30.907Z,4.47
2018-09-19T01:51:01.211Z,4.67
2018-09-19T01:53:30.260Z,4.90
2018-09-19T01:56:05.972Z,4.47
2018-09-19T01:58:35.030Z,4.87
2018-09-19T02:01:06.399Z,4.17
2018-09-19T02:03:40.480Z,4.63
2018-09-19T02:06:15.497Z,5.87
2018-09-19T02:08:48.147Z,4.47
2018-09-19T02:11:22.236Z,5.33
2018-09-19T02:13:52.426Z,4.93
2018-09-19T02:16:25.917Z,4.80
2018-09-19T02:18:55.102Z,4.83
2018-09-19T02:21:24.255Z,6.80
2018-09-19T02:23:56.723Z,5.33
2018-09-19T02:26:26.210Z,6.33
2018-09-19T02:28:57.331Z,4.90
2018-09-19T02:31:27.558Z,5.57
2018-09-19T02:33:56.850Z,4.77
2018-09-19T02:36:27.051Z,9.70
2018-09-19T02:38:57.564Z,4.57
2018-09-19T02:41:27.532Z,4.23
2018-09-19T02:43:59.186Z,5.37
2018-09-19T02:46:28.284Z,8.50
2018-09-19T02:48:57.360Z,4.53
2018-09-19T02:51:26.391Z,4.53
2018-09-19T02:54:00.065Z,5.80
2018-09-19T02:56:29.910Z,5.67
2018-09-19T02:58:58.938Z,4.70
2018-09-19T03:01:31.088Z,5.43
2018-09-19T03:04:00.155Z,6.00
2018-09-19T03:06:29.389Z,5.60
2018-09-19T03:09:00.579Z,13.17
2018-09-19T03:11:30.399Z,4.50
2018-09-19T03:14:03.672Z,4.17
2018-09-19T03:16:33.386Z,5.90
2018-09-19T03:19:07.345Z,4.70
2018-09-19T03:21:40.648Z,5.77
2018-09-19T03:24:11.565Z,6.03
2018-09-19T03:26:45.130Z,4.13
2018-09-19T03:29:15.399Z,4.33
2018-09-19T03:31:44.481Z,5.10
2018-09-19T03:36:46.695Z,6.90
2018-09-19T03:39:22.293Z,9.07
2018-09-19T03:44:25.548Z,4.83
2018-09-19T03:46:57.753Z,4.67
2018-09-19T03:49:30.660Z,5.43
2018-09-19T03:52:07.607Z,5.80
2018-09-19T03:54:37.587Z,4.73
2018-09-19T03:57:07.599Z,7.03
2018-09-19T03:59:36.650Z,6.80
2018-09-19T04:02:06.079Z,4.43
2018-09-19T04:04:35.462Z,7.67
2018-09-19T04:07:05.515Z,7.70
2018-09-19T04:09:35.937Z,11.00
2018-09-19T04:12:06.165Z,15.83
2018-09-19T04:14:39.269Z,15.53
2018-09-19T04:17:12.960Z,10.80
2018-09-19T04:19:42.003Z,15.03
2018-09-19T04:22:11.065Z,8.40
2018-09-19T04:24:52.358Z,9.10
2018-09-19T04:27:21.414Z,6.33
2018-09-19T04:29:50.855Z,4.53
2018-09-19T04:32:25.342Z,4.70
2018-09-19T04:34:54.857Z,7.23
2018-09-19T04:37:23.907Z,7.37
2018-09-19T04:39:56.204Z,7.17
2018-09-19T04:42:25.814Z,7.90
2018-09-19T04:44:54.982Z,7.17
2018-09-19T04:47:24.872Z,12.60
2018-09-19T04:50:01.099Z,4.67
2018-09-19T04:52:30.272Z,4.53
2018-09-19T04:54:59.401Z,4.50
2018-09-19T04:57:36.310Z,11.43
2018-09-19T05:00:05.512Z,10.73
2018-09-19T05:02:34.660Z,14.50
2018-09-19T05:05:07.733Z,14.90
2018-09-19T05:07:40.065Z,9.73
2018-09-19T05:10:09.381Z,12.50
2018-09-19T05:12:42.739Z,7.90
2018-09-19T05:15:12.342Z,7.27
2018-09-19T05:17:41.685Z,6.13
2018-09-19T05:20:11.182Z,8.17
2018-09-19T05:22:40.967Z,8.50
2018-09-19T05:25:18.352Z,6.63
2018-09-19T05:27:48.877Z,7.37
2018-09-19T05:30:21.994Z,6.50
2018-09-19T05:32:51.061Z,4.90
2018-09-19T05:35:20.035Z,10.30
2018-09-19T05:37:49.335Z,7.33
2018-09-19T05:42:52.499Z,9.97
2018-09-19T05:45:27.985Z,7.97
2018-09-19T05:47:57.069Z,10.97
2018-09-19T05:50:26.127Z,6.67
2018-09-19T05:52:56.612Z,5.73
2018-09-19T05:55:27.439Z,6.77
2018-09-19T05:58:00.758Z,5.07
2018-09-19T06:00:35.571Z,5.83
2018-09-19T06:03:05.676Z,6.27
2018-09-19T06:05:34.849Z,7.50
2018-09-19T06:08:04.219Z,5.93
2018-09-19T06:10:33.366Z,6.10
2018-09-19T06:13:03.076Z,6.63
2018-09-19T06:15:32.285Z,5.87
2018-09-19T06:18:01.334Z,6.73
2018-09-19T06:20:31.220Z,8.97
2018-09-19T06:23:04.366Z,7.13
2018-09-19T06:25:38.753Z,5.83
2018-09-19T06:28:08.480Z,7.47
2018-09-19T06:30:37.668Z,9.10
2018-09-19T06:33:07.068Z,7.27
2018-09-19T06:35:37.024Z,6.53
2018-09-19T06:38:09.614Z,10.23
2018-09-19T06:40:39.531Z,10.03
2018-09-19T06:43:11.528Z,6.23
2018-09-19T06:45:42.543Z,7.53
2018-09-19T06:48:11.621Z,5.97
2018-09-19T06:50:46.830Z,7.40
2018-09-19T06:53:15.977Z,9.47
2018-09-19T06:55:49.326Z,8.77
2018-09-19T06:58:18.456Z,7.20
2018-09-19T07:00:47.691Z,10.13
2018-09-19T07:03:16.875Z,7.60
2018-09-19T07:05:46.659Z,7.07
2018-09-19T07:08:16.668Z,7.43
2018-09-19T07:10:45.788Z,9.27
2018-09-19T07:13:16.726Z,6.77
2018-09-19T07:18:30.845Z,6.93
2018-09-19T07:21:00.041Z,9.63
2018-09-19T07:26:03.883Z,9.43
2018-09-19T07:28:32.923Z,7.63
2018-09-19T07:31:02.095Z,6.73
2018-09-19T07:33:31.352Z,8.80
2018-09-19T07:36:00.405Z,8.70
2018-09-19T07:38:29.749Z,9.53
2018-09-19T07:40:58.833Z,8.73
2018-09-19T07:43:27.905Z,10.43
2018-09-19T07:45:59.821Z,7.73
2018-09-19T07:48:34.907Z,7.43
2018-09-19T07:51:04.341Z,7.43
2018-09-19T07:53:33.976Z,10.30
2018-09-19T07:56:03.511Z,5.60
2018-09-19T07:58:32.964Z,8.33
2018-09-19T08:01:07.339Z,7.37
2018-09-19T08:03:36.672Z,6.00
2018-09-19T08:06:05.891Z,6.90
2018-09-19T08:08:37.575Z,7.00
2018-09-19T08:11:08.579Z,4.93
2018-09-19T08:13:40.080Z,6.23
2018-09-19T08:16:11.112Z,6.70
2018-09-19T08:18:40.144Z,4.33
2018-09-19T08:23:47.198Z,5.63
2018-09-19T08:26:24.236Z,7.00
2018-09-19T08:28:54.791Z,5.00
2018-09-19T08:31:24.046Z,6.33
2018-09-19T08:33:53.941Z,6.17
2018-09-19T08:36:22.975Z,4.33
2018-09-19T08:38:54.759Z,7.40
2018-09-19T08:41:28.373Z,9.10
2018-09-19T08:43:58.031Z,10.03
2018-09-19T08:46:27.645Z,10.70
2018-09-19T08:48:57.770Z,8.50
2018-09-19T08:51:27.768Z,8.77
2018-09-19T08:54:00.192Z,10.33
2018-09-19T08:56:30.698Z,9.10
2018-09-19T08:59:00.751Z,13.47
2018-09-19T09:04:06.778Z,7.50
2018-09-19T09:06:39.320Z,10.10
2018-09-19T09:09:09.324Z,9.40
2018-09-19T09:11:38.641Z,7.60
2018-09-19T09:14:13.934Z,8.10
2018-09-19T09:16:45.109Z,4.03
2018-09-19T09:19:15.379Z,4.27
2018-09-19T09:21:45.244Z,3.20
2018-09-19T09:24:16.524Z,5.73
2018-09-19T09:26:45.606Z,7.47
2018-09-19T09:29:16.356Z,4.60
2018-09-19T09:31:46.245Z,4.77
2018-09-19T09:34:16.128Z,5.67
2018-09-19T09:36:46.023Z,5.53
2018-09-19T09:39:18.320Z,4.83
2018-09-19T09:41:50.072Z,3.60
2018-09-19T09:44:23.491Z,5.93
2018-09-19T09:46:53.360Z,4.53
2018-09-19T09:49:22.746Z,8.30
2018-09-19T09:51:53.377Z,5.93
2018-09-19T09:54:26.793Z,5.00
2018-09-19T09:56:59.559Z,3.57
2018-09-19T09:59:29.531Z,4.97
2018-09-19T10:01:58.524Z,3.57
2018-09-19T10:04:28.517Z,6.03
2018-09-19T10:06:57.697Z,3.70
2018-09-19T10:09:34.607Z,3.77
2018-09-19T10:12:05.226Z,3.30
2018-09-19T10:14:40.210Z,4.70
2018-09-19T10:17:09.545Z,2.80
2018-09-19T10:19:40.063Z,3.07
2018-09-19T10:22:09.125Z,3.00
2018-09-19T10:24:44.718Z,3.37
2018-09-19T10:27:24.565Z,3.13
2018-09-19T10:29:53.973Z,2.83
2018-09-19T10:32:30.745Z,5.93
2018-09-19T10:35:01.780Z,2.57
2018-09-19T10:37:35.922Z,8.40
2018-09-19T10:42:40.668Z,4.13
2018-09-19T10:45:10.383Z,5.57
2018-09-19T10:47:39.307Z,5.60
2018-09-19T10:50:08.702Z,2.63
2018-09-19T10:55:16.164Z,3.20
2018-09-19T10:57:47.428Z,5.43
2018-09-19T11:00:17.010Z,2.40
2018-09-19T11:02:47.037Z,4.70
2018-09-19T11:05:18.352Z,3.27
2018-09-19T11:07:47.257Z,4.57
2018-09-19T11:10:16.232Z,4.03
2018-09-19T11:12:45.147Z,2.20
2018-09-19T11:15:13.950Z,4.13
2018-09-19T11:17:42.798Z,2.23
2018-09-19T11:20:11.937Z,2.73
2018-09-19T11:22:40.760Z,5.30
2018-09-19T11:25:09.618Z,3.60
2018-09-19T11:27:38.476Z,3.23
2018-09-19T11:30:07.483Z,3.30
2018-09-19T11:32:36.332Z,5.27
2018-09-19T11:35:05.583Z,4.20
2018-09-19T11:37:34.414Z,2.30
2018-09-19T11:40:03.256Z,2.70
2018-09-19T11:42:32.101Z,6.83
2018-09-19T11:45:00.877Z,3.73
2018-09-19T11:47:29.767Z,8.13
2018-09-19T11:49:58.905Z,4.80
2018-09-19T11:52:27.781Z,5.63
2018-09-19T11:54:56.576Z,2.87
2018-09-19T11:57:25.441Z,3.50
2018-09-19T11:59:54.403Z,5.40
2018-09-19T12:02:24.639Z,2.37
2018-09-19T12:04:55.701Z,7.13
2018-09-19T12:07:25.227Z,2.57
2018-09-19T12:09:54.133Z,6.77
2018-09-19T12:12:23.578Z,4.97
2018-09-19T12:14:53.047Z,2.33
2018-09-19T12:17:22.418Z,2.37
2018-09-19T12:19:52.571Z,5.17
2018-09-19T12:22:21.420Z,4.73
2018-09-19T12:24:50.343Z,10.00
2018-09-19T12:27:19.694Z,5.77
2018-09-19T12:29:48.564Z,2.10
2018-09-19T12:32:19.313Z,3.53
2018-09-19T12:34:48.197Z,5.97
2018-09-19T12:37:17.128Z,3.90
2018-09-19T12:39:46.003Z,5.83
2018-09-19T12:42:15.186Z,3.73
2018-09-19T12:44:43.967Z,3.93
2018-09-19T12:47:12.760Z,5.20
2018-09-19T12:49:42.598Z,4.30
2018-09-19T12:52:11.473Z,2.43
2018-09-19T12:54:40.349Z,3.80
2018-09-19T12:57:09.557Z,4.33
2018-09-19T12:59:38.507Z,4.17
2018-09-19T13:02:08.753Z,3.27
2018-09-19T13:04:39.386Z,4.07
2018-09-19T13:07:09.050Z,3.10
2018-09-19T13:09:37.983Z,2.83
2018-09-19T13:12:07.798Z,3.97
2018-09-19T13:14:36.685Z,2.10
2018-09-19T13:17:05.554Z,3.67
2018-09-19T13:19:34.462Z,5.60
2018-09-19T13:22:04.175Z,4.27
2018-09-19T13:24:35.628Z,3.00
2018-09-19T13:27:05.698Z,2.50
2018-09-19T13:29:35.532Z,2.63
2018-09-19T13:32:04.394Z,2.60
2018-09-19T13:34:34.288Z,3.40
2018-09-19T13:37:04.755Z,3.23
2018-09-19T13:39:37.082Z,2.87
2018-09-19T13:42:06.638Z,3.67
2018-09-19T13:44:36.544Z,1.50
2018-09-19T13:47:05.668Z,2.63
2018-09-19T13:49:43.065Z,2.40
2018-09-19T13:52:13.726Z,2.10
2018-09-19T13:54:42.630Z,3.37
2018-09-19T13:57:12.760Z,4.17
2018-09-19T13:59:42.958Z,4.20
2018-09-19T14:02:11.887Z,2.90
2018-09-19T14:04:40.835Z,4.97
2018-09-19T14:07:09.730Z,2.17
2018-09-19T14:09:39.197Z,2.43
2018-09-19T14:12:09.544Z,1.90
2018-09-19T14:14:39.122Z,3.37
2018-09-19T14:17:11.123Z,2.87
2018-09-19T14:19:39.987Z,3.30
2018-09-19T14:22:09.467Z,2.10
2018-09-19T14:24:48.603Z,2.83
2018-09-19T14:27:19.578Z,2.87
2018-09-19T14:29:50.959Z,1.97
2018-09-19T14:32:22.745Z,2.27
2018-09-19T14:34:57.480Z,5.80
2018-09-19T14:37:34.075Z,2.90
2018-09-19T14:42:42.185Z,2.40
2018-09-19T14:45:17.358Z,1.80
2018-09-19T14:47:53.734Z,2.70
2018-09-19T14:50:26.859Z,3.53
2018-09-19T14:52:55.962Z,1.97
2018-09-19T14:55:26.237Z,1.93
2018-09-19T14:57:55.869Z,3.37
2018-09-19T15:00:31.316Z,1.60
2018-09-19T15:03:04.021Z,3.43
2018-09-19T15:05:38.103Z,2.93
2018-09-19T15:08:15.024Z,4.43
2018-09-19T15:10:47.498Z,4.40
2018-09-19T15:13:21.368Z,3.73
2018-09-19T15:15:50.939Z,2.60
2018-09-19T15:18:20.571Z,4.83
2018-09-19T15:20:50.566Z,5.13
2018-09-19T15:23:23.818Z,2.57
2018-09-19T15:25:53.215Z,2.60
2018-09-19T15:28:22.517Z,2.23
2018-09-19T15:30:52.076Z,2.80
2018-09-19T15:33:25.532Z,3.50
2018-09-19T15:35:56.604Z,2.33
2018-09-19T15:38:27.899Z,2.33
2018-09-19T15:41:01.860Z,5.97
2018-09-19T15:43:30.931Z,3.27
2018-09-19T15:46:02.096Z,5.93
2018-09-19T15:48:32.301Z,4.30
2018-09-19T15:51:02.552Z,3.53
2018-09-19T15:53:32.915Z,6.33
2018-09-19T15:56:03.568Z,2.47
2018-09-19T15:58:32.920Z,4.70
2018-09-19T16:01:02.256Z,2.07
2018-09-19T16:03:35.814Z,3.63
2018-09-19T16:06:04.967Z,1.93
2018-09-19T16:08:39.578Z,1.63
2018-09-19T16:11:08.904Z,3.33
2018-09-19T16:13:38.655Z,1.60
2018-09-19T16:16:09.462Z,4.23
2018-09-19T16:18:38.620Z,3.80
2018-09-19T16:21:07.747Z,4.77
2018-09-19T16:23:37.962Z,5.30
2018-09-19T16:26:07.634Z,2.27
2018-09-19T16:28:37.892Z,2.97
2018-09-19T16:31:10.899Z,3.00
2018-09-19T16:33:41.068Z,3.93
2018-09-19T16:36:10.487Z,3.50
2018-09-19T16:38:40.131Z,3.97
2018-09-19T16:41:10.014Z,4.37
2018-09-19T16:43:39.866Z,2.43
2018-09-19T16:46:08.994Z,3.47
2018-09-19T16:48:38.047Z,7.60
2018-09-19T16:51:08.295Z,2.53
2018-09-19T16:53:37.474Z,7.00
2018-09-19T16:56:06.922Z,2.60
2018-09-19T16:58:38.461Z,7.17
2018-09-19T17:01:07.539Z,9.97
2018-09-19T17:03:36.555Z,12.03
2018-09-19T17:06:13.902Z,5.73
2018-09-19T17:08:50.849Z,11.63
2018-09-19T17:11:25.376Z,9.00
2018-09-19T17:13:55.326Z,6.50
2018-09-19T17:16:29.306Z,8.90
2018-09-19T17:19:00.327Z,7.30
2018-09-19T17:21:29.494Z,9.53
2018-09-19T17:24:04.970Z,6.77
2018-09-19T17:26:34.095Z,7.77
2018-09-19T17:29:03.336Z,5.47
2018-09-19T17:34:12.708Z,2.73
2018-09-19T17:36:41.813Z,4.40
2018-09-19T17:39:12.706Z,4.73
2018-09-19T17:41:43.281Z,5.20
2018-09-19T17:44:14.959Z,10.27
2018-09-19T17:46:48.007Z,7.00
2018-09-19T17:49:19.095Z,5.73
2018-09-19T17:51:49.327Z,3.27
2018-09-19T17:54:19.717Z,4.90
2018-09-19T17:56:49.019Z,2.60
2018-09-19T17:59:26.111Z,2.47
2018-09-19T18:01:57.400Z,7.30
2018-09-19T18:04:26.509Z,5.00
2018-09-19T18:06:57.343Z,4.13
2018-09-19T18:09:27.154Z,3.17
2018-09-19T18:11:58.006Z,4.00
2018-09-19T18:14:27.180Z,3.77
2018-09-19T18:16:57.476Z,5.50
2018-09-19T18:19:26.934Z,4.90
2018-09-19T18:21:56.841Z,7.10
2018-09-19T18:24:30.122Z,12.93
2018-09-19T18:27:00.896Z,6.50
2018-09-19T18:29:34.606Z,6.27
2018-09-19T18:32:05.834Z,5.50
2018-09-19T18:34:37.613Z,4.97
2018-09-19T18:37:13.210Z,4.87
2018-09-19T18:39:43.987Z,5.93
2018-09-19T18:42:17.894Z,4.03
2018-09-19T18:44:47.327Z,7.90
2018-09-19T18:47:21.587Z,5.27
2018-09-19T18:49:57.089Z,3.80
2018-09-19T18:52:26.768Z,4.47
2018-09-19T18:54:57.774Z,6.97
2018-09-19T18:57:28.120Z,7.03
2018-09-19T18:59:57.930Z,4.93
2018-09-19T19:02:29.707Z,5.47
2018-09-19T19:04:59.950Z,4.90
2018-09-19T19:07:33.200Z,5.70
2018-09-19T19:10:06.156Z,5.57
2018-09-19T19:12:44.444Z,2.93
2018-09-19T19:15:18.399Z,3.83
2018-09-19T19:20:30.902Z,2.80
2018-09-19T19:23:01.138Z,3.53
2018-09-19T19:25:30.284Z,2.70
2018-09-19T19:27:59.397Z,4.27
2018-09-19T19:30:33.617Z,6.60
2018-09-19T19:33:04.178Z,4.87
2018-09-19T19:35:34.177Z,7.10
2018-09-19T19:38:03.440Z,7.30
2018-09-19T19:40:32.925Z,4.17
2018-09-19T19:43:04.676Z,4.40
2018-09-19T19:45:37.645Z,2.70
2018-09-19T19:48:14.723Z,3.77
2018-09-19T19:50:43.798Z,5.90
2018-09-19T19:53:12.949Z,7.00
2018-09-19T19:55:44.836Z,5.73
2018-09-19T19:58:15.991Z,4.47
2018-09-19T20:00:45.451Z,5.67
2018-09-19T20:03:15.413Z,4.17
2018-09-19T20:05:46.374Z,3.20
2018-09-19T20:08:19.380Z,3.40
2018-09-19T20:10:52.727Z,6.30
2018-09-19T20:13:26.532Z,3.43
2018-09-19T20:15:55.712Z,5.23
2018-09-19T20:18:30.521Z,4.83
2018-09-19T20:20:59.621Z,5.57
2018-09-19T20:23:30.401Z,4.27
2018-09-19T20:25:59.576Z,2.63
2018-09-19T20:28:32.291Z,4.23
2018-09-19T20:31:02.408Z,4.37
2018-09-19T20:33:32.062Z,4.10
2018-09-19T20:36:01.120Z,6.23
2018-09-19T20:38:32.405Z,6.67
2018-09-19T20:41:02.708Z,5.67
2018-09-19T20:43:31.874Z,4.40
2018-09-19T20:46:01.142Z,9.47
2018-09-19T20:48:33.343Z,6.47
2018-09-19T20:51:03.993Z,6.77
2018-09-19T20:53:33.105Z,7.47
2018-09-19T20:56:02.521Z,7.00
2018-09-19T20:58:34.571Z,4.03
2018-09-19T21:01:04.958Z,3.07
2018-09-19T21:03:34.003Z,4.33
2018-09-19T21:06:03.380Z,4.37
2018-09-19T21:08:33.009Z,3.70
2018-09-19T21:11:06.382Z,3.77
2018-09-19T21:13:35.492Z,4.47
2018-09-19T21:16:04.654Z,3.33
2018-09-19T21:18:35.890Z,4.63
2018-09-19T21:21:05.213Z,4.00
2018-09-19T21:23:34.332Z,6.23
2018-09-19T21:26:03.681Z,4.47
2018-09-19T21:28:33.146Z,4.33
2018-09-19T21:31:02.202Z,3.33
2018-09-19T21:33:33.898Z,5.17
2018-09-19T21:36:08.497Z,4.47
2018-09-19T21:38:38.841Z,6.07
2018-09-19T21:41:08.033Z,4.63
2018-09-19T21:43:38.755Z,3.53
2018-09-19T21:46:14.451Z,2.20
2018-09-19T21:48:44.312Z,3.70
2018-09-19T21:51:13.658Z,2.63
2018-09-19T21:53:44.208Z,4.87
2018-09-19T21:56:13.958Z,2.50
2018-09-19T21:58:43.591Z,2.47
2018-09-19T22:01:14.522Z,3.43
2018-09-19T22:03:48.549Z,3.10
2018-09-19T22:06:18.423Z,2.60
2018-09-19T22:08:47.473Z,1.80
2018-09-19T22:11:17.009Z,1.93
2018-09-19T22:13:46.052Z,2.17
2018-09-19T22:16:15.019Z,2.57
2018-09-19T22:18:44.334Z,3.00
2018-09-19T22:21:16.270Z,3.83
2018-09-19T22:23:47.895Z,3.90
2018-09-19T22:26:17.173Z,3.27
2018-09-19T22:28:46.212Z,1.97
2018-09-19T22:31:16.792Z,2.37
2018-09-19T22:33:47.659Z,3.10
2018-09-19T22:36:16.755Z,3.37
2018-09-19T22:38:50.610Z,2.83
2018-09-19T22:41:21.513Z,3.03
2018-09-19T22:43:51.041Z,6.83
2018-09-19T22:46:20.191Z,1.93
2018-09-19T22:48:51.411Z,3.13
2018-09-19T22:51:21.329Z,1.83
2018-09-19T22:56:24.797Z,4.03
2018-09-19T22:58:53.908Z,5.93
2018-09-19T23:01:22.970Z,4.10
2018-09-19T23:03:56.243Z,4.30
2018-09-19T23:06:25.299Z,3.23
2018-09-19T23:08:54.352Z,2.33
2018-09-19T23:11:23.865Z,2.63
2018-09-19T23:13:58.107Z,3.10
2018-09-19T23:16:27.151Z,3.33
2018-09-19T23:19:01.140Z,2.53
2018-09-19T23:21:33.953Z,2.67
2018-09-19T23:24:02.999Z,2.33
2018-09-19T23:26:32.082Z,1.70
2018-09-19T23:29:05.733Z,2.13
2018-09-19T23:31:38.706Z,3.53
2018-09-19T23:34:08.070Z,2.50
2018-09-19T23:36:37.967Z,3.57
2018-09-19T23:39:09.721Z,2.87
2018-09-19T23:41:38.859Z,2.30
2018-09-19T23:44:12.590Z,2.07
2018-09-19T23:46:42.582Z,3.97
2018-09-19T23:49:11.686Z,3.57
2018-09-19T23:51:40.808Z,3.97
2018-09-19T23:54:09.873Z,2.40
2018-09-19T23:56:38.873Z,3.40
2018-09-19T23:59:08.621Z,3.17
